Date,TemperatureHighF,TemperatureAvgF,TemperatureLowF,DewpointHighF,DewpointAvgF,DewpointLowF,HumidityHigh,HumidityAvg,HumidityLow,PressureMaxIn,PressureMinIn,WindSpeedMaxMPH,WindSpeedAvgMPH,GustSpeedMaxMPH,PrecipitationSumIn
2013-8-1,77.0,63.9,57.0,58.0,53.3,47.0,89,72,35,0.00,40.00,10,3,18,0.00
2013-8-2,78.0,68.0,60.0,63.0,55.9,50.0,89,68,38,0.00,40.00,8,4,14,0.00
2013-8-3,75.0,64.5,53.0,53.0,49.3,44.0,88,62,34,0.00,40.00,10,4,14,0.00
2013-8-4,75.0,63.0,51.0,56.0,50.5,47.0,89,67,37,0.00,40.00,6,2,10,0.00
2013-8-5,69.0,61.8,55.0,62.0,56.4,52.0,90,83,63,0.00,40.00,7,3,14,0.00
2013-8-6,79.0,69.6,66.0,66.0,63.4,62.0,89,82,59,0.00,40.00,4,2,9,0.00
2013-8-7,79.0,73.0,69.0,68.0,63.7,57.0,89,75,48,0.00,40.00,10,4,19,0.00
2013-8-8,75.0,67.9,62.0,60.0,57.4,52.0,88,71,45,0.00,40.00,4,2,14,0.00
2013-8-9,78.0,66.6,56.0,59.0,55.4,51.0,90,70,42,0.00,40.00,9,3,14,0.00
2013-8-10,76.0,65.0,54.0,53.0,49.9,47.0,89,62,36,0.00,40.00,9,4,14,0.00
2013-8-11,74.0,64.0,52.0,62.0,56.7,49.0,90,79,58,0.00,40.00,6,2,14,0.00
2013-8-12,78.0,69.0,60.0,65.0,59.1,53.0,89,73,47,0.00,40.00,8,3,15,0.00
2013-8-13,71.0,62.4,54.0,55.0,44.6,-99.9,83,57,37,0.00,40.00,7,4,17,0.00
2013-8-14,72.0,55.4,46.0,53.0,46.5,43.0,90,76,35,0.00,40.00,4,1,9,0.00
2013-8-15,77.0,57.7,53.0,53.0,38.9,-99.9,89,65,34,0.00,40.00,8,2,11,0.00
2013-8-16,79.0,59.9,53.0,53.0,48.3,-99.9,89,72,33,0.00,40.00,7,2,10,0.00
2013-8-17,80.0,58.0,51.0,55.0,48.2,-99.9,90,76,34,0.00,40.00,6,1,11,0.00
2013-8-18,78.0,58.3,50.0,56.0,50.6,47.0,90,79,36,0.00,40.00,4,1,9,0.00
2013-8-19,78.0,62.6,52.0,59.0,54.1,49.0,90,76,45,0.00,40.00,3,1,7,0.00
2013-8-20,82.0,66.1,58.0,63.0,56.0,-99.9,90,75,46,0.00,40.00,5,2,13,0.00
2013-8-21,82.0,73.2,68.0,69.0,63.7,61.0,87,73,54,0.00,40.00,4,2,11,0.00
2013-8-22,76.0,69.2,63.0,68.0,63.8,60.0,89,83,63,0.00,40.00,19,3,34,0.00
2013-8-23,79.0,64.8,57.0,62.0,56.0,50.0,89,77,39,0.00,40.00,9,2,13,0.00
2013-8-24,80.0,63.4,53.0,64.0,53.7,-99.9,90,75,52,0.00,40.00,6,3,14,0.00
2013-8-25,83.0,72.9,68.0,64.0,62.7,61.0,86,71,51,0.00,40.00,5,3,12,0.00
2013-8-26,80.0,73.0,69.0,71.0,64.9,62.0,84,77,64,0.00,40.00,4,2,9,0.00
2013-8-27,82.0,74.5,71.0,69.0,67.5,66.0,88,80,61,0.00,40.00,3,1,9,0.00
2013-8-28,79.0,73.8,68.0,67.0,65.3,64.0,88,76,63,0.00,40.00,5,2,11,0.00
2013-8-29,81.0,67.9,62.0,66.0,62.6,60.0,90,84,54,0.00,40.00,7,2,11,0.00
2013-8-30,85.0,73.2,67.0,70.0,66.4,63.0,89,81,57,0.00,40.00,10,3,17,0.00
2013-8-31,78.0,68.5,62.0,65.0,59.4,-99.9,89,76,57,0.00,40.00,8,2,17,0.00